createdAt,value
2022-11-23T00:02:04.599Z,51.90
2022-11-23T00:04:33.110Z,49.60
2022-11-23T00:07:01.706Z,50.20
2022-11-23T00:09:30.646Z,49.10
2022-11-23T00:11:59.428Z,49.80
2022-11-23T00:14:27.971Z,48.30
2022-11-23T00:16:56.572Z,49.40
2022-11-23T00:19:25.168Z,49.70
2022-11-23T00:21:53.702Z,48.30
2022-11-23T00:24:22.369Z,46.00
2022-11-23T00:26:51.046Z,46.70
2022-11-23T00:29:19.548Z,45.00
2022-11-23T00:31:48.094Z,44.80
2022-11-23T00:34:16.683Z,47.70
2022-11-23T00:36:45.210Z,46.80
2022-11-23T00:39:13.726Z,46.10
2022-11-23T00:41:42.296Z,43.70
2022-11-23T00:44:10.881Z,45.30
2022-11-23T00:46:39.410Z,43.30
2022-11-23T00:49:08.218Z,44.20
2022-11-23T00:51:37.436Z,46.20
2022-11-23T00:54:06.746Z,43.10
2022-11-23T00:56:36.705Z,45.50
2022-11-23T00:59:05.924Z,43.60
2022-11-23T01:01:39.454Z,44.00
2022-11-23T01:04:09.011Z,45.30
2022-11-23T01:06:40.456Z,43.70
2022-11-23T01:09:15.009Z,41.60
2022-11-23T01:11:45.106Z,43.30
2022-11-23T01:14:13.752Z,45.30
2022-11-23T01:16:42.473Z,39.50
2022-11-23T01:19:14.719Z,45.70
2022-11-23T01:21:43.811Z,44.30
2022-11-23T01:24:16.615Z,39.10
2022-11-23T01:26:46.134Z,46.20
2022-11-23T01:29:14.668Z,42.60
2022-11-23T01:31:46.575Z,45.10
2022-11-23T01:34:16.442Z,42.60
2022-11-23T01:36:45.779Z,44.00
2022-11-23T01:39:14.965Z,41.50
2022-11-23T01:41:46.718Z,40.60
2022-11-23T01:44:29.270Z,41.20
2022-11-23T01:47:01.651Z,39.70
2022-11-23T01:49:45.037Z,41.00
2022-11-23T01:52:25.944Z,42.50
2022-11-23T01:54:59.217Z,41.30
2022-11-23T01:57:39.242Z,44.80
2022-11-23T02:00:08.841Z,38.90
2022-11-23T02:02:40.981Z,41.20
2022-11-23T02:05:10.950Z,41.20
2022-11-23T02:07:40.168Z,41.50
2022-11-23T02:10:09.196Z,36.50
2022-11-23T02:12:37.833Z,39.50
2022-11-23T02:15:06.985Z,41.10
2022-11-23T02:17:35.563Z,41.60
2022-11-23T02:20:12.863Z,40.80
2022-11-23T02:23:05.607Z,39.80
2022-11-23T02:25:46.140Z,41.00
2022-11-23T02:28:20.164Z,43.30
2022-11-23T02:30:51.478Z,41.80
2022-11-23T02:33:20.092Z,43.30
2022-11-23T02:35:50.969Z,45.30
2022-11-23T02:38:20.391Z,42.80
2022-11-23T02:40:49.280Z,42.40
2022-11-23T02:43:36.308Z,45.80
2022-11-23T02:46:04.998Z,42.60
2022-11-23T02:48:33.527Z,42.20
2022-11-23T02:51:02.025Z,43.50
2022-11-23T02:53:30.635Z,43.00
2022-11-23T02:55:59.182Z,40.50
2022-11-23T02:58:27.744Z,45.30
2022-11-23T03:00:56.363Z,40.90
2022-11-23T03:03:25.094Z,40.40
2022-11-23T03:05:53.743Z,41.40
2022-11-23T03:08:22.355Z,40.30
2022-11-23T03:10:50.884Z,36.70
2022-11-23T03:13:19.671Z,40.40
2022-11-23T03:15:48.335Z,40.80
2022-11-23T03:18:16.908Z,38.90
2022-11-23T03:20:45.493Z,40.40
2022-11-23T03:23:14.032Z,38.50
2022-11-23T03:25:42.555Z,37.50
2022-11-23T03:28:11.138Z,37.90
2022-11-23T03:30:39.655Z,37.80
2022-11-23T03:33:08.158Z,37.40
2022-11-23T03:35:38.154Z,38.00
2022-11-23T03:38:06.676Z,37.70
2022-11-23T03:40:35.435Z,37.70
2022-11-23T03:43:04.740Z,41.80
2022-11-23T03:45:33.373Z,40.10
2022-11-23T03:48:02.069Z,36.50
2022-11-23T03:50:31.169Z,37.40
2022-11-23T03:53:06.354Z,38.60
2022-11-23T03:55:35.178Z,39.80
2022-11-23T03:58:04.384Z,37.70
2022-11-23T04:00:34.585Z,39.90
2022-11-23T04:03:03.590Z,41.80
2022-11-23T04:05:32.236Z,39.40
2022-11-23T04:08:01.093Z,37.60
2022-11-23T04:10:29.655Z,38.60
2022-11-23T04:12:58.241Z,38.70
2022-11-23T04:15:26.742Z,37.60
2022-11-23T04:17:55.653Z,40.50
2022-11-23T04:20:24.202Z,41.10
2022-11-23T04:22:52.769Z,41.10
2022-11-23T04:25:21.331Z,39.60
2022-11-23T04:27:49.883Z,38.20
2022-11-23T04:30:18.535Z,39.10
2022-11-23T04:32:47.392Z,39.20
2022-11-23T04:35:16.044Z,38.50
2022-11-23T04:37:44.610Z,40.10
2022-11-23T04:40:13.986Z,38.70
2022-11-23T04:42:42.499Z,39.00
2022-11-23T04:45:11.595Z,43.10
2022-11-23T04:47:40.155Z,37.90
2022-11-23T04:50:08.967Z,38.10
2022-11-23T04:52:37.534Z,39.00
2022-11-23T04:55:06.752Z,36.50
2022-11-23T04:57:35.277Z,37.40
2022-11-23T05:00:05.190Z,38.40
2022-11-23T05:02:33.708Z,40.90
2022-11-23T05:05:02.412Z,41.50
2022-11-23T05:07:31.360Z,38.90
2022-11-23T05:09:59.940Z,38.60
2022-11-23T05:12:29.156Z,38.10
2022-11-23T05:14:57.759Z,34.90
2022-11-23T05:17:26.300Z,35.90
2022-11-23T05:19:56.267Z,36.70
2022-11-23T05:22:24.904Z,33.70
2022-11-23T05:24:53.529Z,34.10
2022-11-23T05:27:22.360Z,35.30
2022-11-23T05:29:50.866Z,35.20
2022-11-23T05:32:19.480Z,35.20
2022-11-23T05:34:48.113Z,35.10
2022-11-23T05:37:16.961Z,35.10
2022-11-23T05:39:45.563Z,36.60
2022-11-23T05:42:14.809Z,37.40
2022-11-23T05:44:43.306Z,36.80
2022-11-23T05:47:11.916Z,33.30
2022-11-23T05:49:40.443Z,34.80
2022-11-23T05:52:09.019Z,34.10
2022-11-23T05:54:37.671Z,36.70
2022-11-23T05:57:06.546Z,34.80
2022-11-23T05:59:35.259Z,33.70
2022-11-23T06:02:03.962Z,33.30
2022-11-23T06:04:32.532Z,34.60
2022-11-23T06:07:01.284Z,34.20
2022-11-23T06:09:30.900Z,32.70
2022-11-23T06:11:59.591Z,34.60
2022-11-23T06:14:28.085Z,38.40
2022-11-23T06:16:56.630Z,33.40
2022-11-23T06:19:25.251Z,35.20
2022-11-23T06:21:53.767Z,36.00
2022-11-23T06:24:22.313Z,35.10
2022-11-23T06:26:52.555Z,34.30
2022-11-23T06:29:21.249Z,34.10
2022-11-23T06:31:49.877Z,34.60
2022-11-23T06:34:18.411Z,35.80
2022-11-23T06:36:47.154Z,35.60
2022-11-23T06:39:15.665Z,35.60
2022-11-23T06:41:44.665Z,35.80
2022-11-23T06:44:13.304Z,33.70
2022-11-23T06:46:41.906Z,37.50
2022-11-23T06:49:10.470Z,34.20
2022-11-23T06:51:39.028Z,35.80
2022-11-23T06:54:09.109Z,34.00
2022-11-23T06:56:37.817Z,33.00
2022-11-23T06:59:06.363Z,34.10
2022-11-23T07:01:35.159Z,32.10
2022-11-23T07:04:03.871Z,37.50
2022-11-23T07:06:32.463Z,31.00
2022-11-23T07:09:01.043Z,31.00
2022-11-23T07:11:29.693Z,34.40
2022-11-23T07:13:58.307Z,31.70
2022-11-23T07:16:26.854Z,30.90
2022-11-23T07:18:55.380Z,31.60
2022-11-23T07:21:23.937Z,33.70
2022-11-23T07:23:52.485Z,31.50
2022-11-23T07:26:22.614Z,30.70
2022-11-23T07:28:51.190Z,32.50
2022-11-23T07:31:19.719Z,30.40
2022-11-23T07:33:48.549Z,30.60
2022-11-23T07:36:17.089Z,32.80
2022-11-23T07:38:45.644Z,28.60
2022-11-23T07:41:14.291Z,31.70
2022-11-23T07:43:42.848Z,31.00
2022-11-23T07:46:11.442Z,30.50
2022-11-23T07:48:40.000Z,33.00
2022-11-23T07:51:08.864Z,30.40
2022-11-23T07:53:37.522Z,33.10
2022-11-23T07:56:06.748Z,33.30
2022-11-23T07:58:35.246Z,31.00
2022-11-23T08:01:04.189Z,31.40
2022-11-23T08:03:32.818Z,33.50
2022-11-23T08:06:01.619Z,30.00
2022-11-23T08:08:30.622Z,29.00
2022-11-23T08:10:59.258Z,29.10
2022-11-23T08:13:27.905Z,30.20
2022-11-23T08:15:56.993Z,29.40
2022-11-23T08:18:25.542Z,30.70
2022-11-23T08:20:54.517Z,32.60
2022-11-23T08:23:25.792Z,31.60
2022-11-23T08:25:54.555Z,30.80
2022-11-23T08:28:23.302Z,30.40
2022-11-23T08:30:51.886Z,30.90
2022-11-23T08:33:20.513Z,31.90
2022-11-23T08:35:49.256Z,30.10
2022-11-23T08:38:17.925Z,31.40
2022-11-23T08:40:46.634Z,31.50
2022-11-23T08:43:15.209Z,29.70
2022-11-23T08:45:43.799Z,31.00
2022-11-23T08:48:12.362Z,30.80
2022-11-23T08:50:41.264Z,31.40
2022-11-23T08:53:09.872Z,31.30
2022-11-23T08:55:38.704Z,30.60
2022-11-23T08:58:13.167Z,31.90
2022-11-23T09:00:42.165Z,31.20
2022-11-23T09:03:10.737Z,30.70
2022-11-23T09:05:39.804Z,30.90
2022-11-23T09:08:09.185Z,32.60
2022-11-23T09:10:41.041Z,30.30
2022-11-23T09:13:09.754Z,29.10
2022-11-23T09:15:38.337Z,29.30
2022-11-23T09:18:06.884Z,32.10
2022-11-23T09:20:35.466Z,31.30
2022-11-23T09:23:05.243Z,29.30
2022-11-23T09:25:35.380Z,30.90
2022-11-23T09:28:04.819Z,30.70
2022-11-23T09:30:33.554Z,30.50
2022-11-23T09:33:02.134Z,29.70
2022-11-23T09:35:30.739Z,28.50
2022-11-23T09:37:59.696Z,33.10
2022-11-23T09:40:34.089Z,32.30
2022-11-23T09:43:29.313Z,29.20
2022-11-23T09:46:08.632Z,29.50
2022-11-23T09:49:02.437Z,30.20
2022-11-23T09:51:30.942Z,32.70
2022-11-23T09:54:04.956Z,32.50
2022-11-23T09:56:36.646Z,31.20
2022-11-23T09:59:36.658Z,33.70
2022-11-23T10:02:05.571Z,32.20
2022-11-23T10:04:35.629Z,33.10
2022-11-23T10:07:45.757Z,33.00
2022-11-23T10:10:38.449Z,32.00
2022-11-23T10:13:45.711Z,32.20
2022-11-23T10:16:33.731Z,31.20
2022-11-23T10:19:37.672Z,32.20
2022-11-23T10:22:26.628Z,30.00
2022-11-23T10:24:55.377Z,29.60
2022-11-23T10:27:25.387Z,32.20
2022-11-23T10:29:56.515Z,34.90
2022-11-23T10:32:35.572Z,33.70
2022-11-23T10:35:38.448Z,34.20
2022-11-23T10:38:19.902Z,33.50
2022-11-23T10:41:00.860Z,31.60
2022-11-23T10:43:41.782Z,32.90
2022-11-23T10:46:37.192Z,32.20
2022-11-23T10:49:29.376Z,29.20
2022-11-23T10:52:05.930Z,28.30
2022-11-23T10:54:55.548Z,28.30
2022-11-23T10:57:45.306Z,26.90
2022-11-23T11:00:17.534Z,30.50
2022-11-23T11:02:51.219Z,29.50
2022-11-23T11:09:02.636Z,31.70
2022-11-23T11:11:36.248Z,31.80
2022-11-23T11:14:16.988Z,31.30
2022-11-23T11:16:52.064Z,30.60
2022-11-23T11:19:32.967Z,29.40
2022-11-23T11:22:24.449Z,31.60
2022-11-23T11:24:53.763Z,33.10
2022-11-23T11:27:28.652Z,31.80
2022-11-23T11:30:20.666Z,30.90
2022-11-23T11:33:21.883Z,31.10
2022-11-23T11:35:53.748Z,31.30
2022-11-23T11:38:35.199Z,30.40
2022-11-23T11:41:11.108Z,33.90
2022-11-23T11:44:10.307Z,31.80
2022-11-23T11:46:46.924Z,29.20
2022-11-23T11:49:30.602Z,31.60
2022-11-23T11:52:11.822Z,31.60
2022-11-23T11:55:05.890Z,31.40
2022-11-23T11:58:02.524Z,31.20
2022-11-23T12:00:39.637Z,29.20
2022-11-23T12:03:20.320Z,29.10
2022-11-23T12:05:54.094Z,30.40
2022-11-23T12:08:35.997Z,28.80
2022-11-23T12:11:06.798Z,29.30
2022-11-23T12:13:39.013Z,31.60
2022-11-23T12:16:34.155Z,32.30
2022-11-23T12:19:11.233Z,28.20
2022-11-23T12:21:54.305Z,28.50
2022-11-23T12:25:05.970Z,25.80
2022-11-23T12:27:52.558Z,26.90
2022-11-23T12:30:42.026Z,28.20
2022-11-23T12:33:47.084Z,29.80
2022-11-23T12:36:54.211Z,27.60
2022-11-23T12:40:02.944Z,26.70
2022-11-23T12:42:54.016Z,26.20
2022-11-23T12:45:24.447Z,27.30
2022-11-23T12:48:18.766Z,26.10
2022-11-23T12:51:25.783Z,28.00
2022-11-23T12:54:12.993Z,28.50
2022-11-23T12:57:24.785Z,27.80
2022-11-23T12:59:55.958Z,29.60
2022-11-23T13:02:52.039Z,27.50
2022-11-23T13:06:01.010Z,29.30
2022-11-23T13:09:04.810Z,29.70
2022-11-23T13:12:08.857Z,28.30
2022-11-23T13:14:49.452Z,30.40
2022-11-23T13:17:52.380Z,27.80
2022-11-23T13:21:00.719Z,32.10
2022-11-23T13:23:38.521Z,29.70
2022-11-23T13:26:33.851Z,30.90
2022-11-23T13:29:41.268Z,29.70
2022-11-23T13:32:43.035Z,31.40
2022-11-23T13:35:23.738Z,31.10
2022-11-23T13:37:58.246Z,34.10
2022-11-23T13:40:35.304Z,33.10
2022-11-23T13:43:18.903Z,35.20
2022-11-23T13:46:29.664Z,31.60
2022-11-23T13:49:00.126Z,33.90
2022-11-23T13:51:32.398Z,32.00
2022-11-23T13:54:26.667Z,32.80
2022-11-23T13:57:02.797Z,33.50
2022-11-23T13:59:34.996Z,49.30
2022-11-23T14:02:10.366Z,40.20
2022-11-23T14:07:27.111Z,31.90
2022-11-23T14:10:17.864Z,34.70
2022-11-23T14:13:16.063Z,33.60
2022-11-23T14:15:56.325Z,35.20
2022-11-23T14:18:52.737Z,33.40
2022-11-23T14:21:32.418Z,31.80
2022-11-23T14:24:25.745Z,32.60
2022-11-23T14:31:30.056Z,31.00
2022-11-23T14:34:51.582Z,30.20
2022-11-23T14:37:47.878Z,36.20
2022-11-23T14:40:44.678Z,47.60
2022-11-23T14:43:20.161Z,43.60
2022-11-23T14:45:48.954Z,41.50
2022-11-23T14:48:48.778Z,36.30
2022-11-23T14:51:26.570Z,33.90
2022-11-23T14:54:02.754Z,39.40
2022-11-23T14:56:47.740Z,42.00
2022-11-23T14:59:37.787Z,37.90
2022-11-23T15:02:17.629Z,36.10
2022-11-23T15:05:08.253Z,60.30
2022-11-23T15:08:11.871Z,40.60
2022-11-23T15:11:04.323Z,35.00
2022-11-23T15:13:51.404Z,33.70
2022-11-23T15:16:22.372Z,34.00
2022-11-23T15:18:52.027Z,33.80
2022-11-23T15:21:28.005Z,36.90
2022-11-23T15:23:58.395Z,39.90
2022-11-23T15:26:49.208Z,32.60
2022-11-23T15:29:38.734Z,34.20
2022-11-23T15:32:31.550Z,35.90
2022-11-23T15:35:07.312Z,38.00
2022-11-23T15:37:47.997Z,33.90
2022-11-23T15:40:19.776Z,34.60
2022-11-23T15:42:51.290Z,36.00
2022-11-23T15:45:56.132Z,32.90
2022-11-23T15:48:36.595Z,37.50
2022-11-23T15:51:08.972Z,32.10
2022-11-23T15:53:51.954Z,44.20
2022-11-23T15:56:33.201Z,41.80
2022-11-23T15:59:25.992Z,36.80
2022-11-23T16:01:55.483Z,35.90
2022-11-23T16:04:40.042Z,34.00
2022-11-23T16:07:26.080Z,35.60
2022-11-23T16:10:18.792Z,36.30
2022-11-23T16:12:56.736Z,36.00
2022-11-23T16:15:38.686Z,49.80
2022-11-23T16:18:14.037Z,47.20
2022-11-23T16:20:45.532Z,41.50
2022-11-23T16:23:27.048Z,41.20
2022-11-23T16:26:02.839Z,42.30
2022-11-23T16:28:39.539Z,43.70
2022-11-23T16:31:37.004Z,41.20
2022-11-23T16:34:19.525Z,40.60
2022-11-23T16:36:48.970Z,44.00
2022-11-23T16:39:17.779Z,42.50
2022-11-23T16:41:46.318Z,40.90
2022-11-23T16:44:14.946Z,36.90
2022-11-23T16:46:44.175Z,41.80
2022-11-23T16:49:23.895Z,39.90
2022-11-23T16:51:57.157Z,41.10
2022-11-23T16:54:26.115Z,41.90
2022-11-23T16:56:54.752Z,47.40
2022-11-23T16:59:23.913Z,44.20
2022-11-23T17:01:57.026Z,45.80
2022-11-23T17:04:27.003Z,48.10
2022-11-23T17:06:56.009Z,44.50
2022-11-23T17:09:24.550Z,43.80
2022-11-23T17:11:53.126Z,48.10
2022-11-23T17:14:28.049Z,42.40
2022-11-23T17:17:02.129Z,47.70
2022-11-23T17:19:31.356Z,54.60
2022-11-23T17:22:00.167Z,54.10
2022-11-23T17:24:28.826Z,50.50
2022-11-23T17:26:57.607Z,47.90
2022-11-23T17:29:26.306Z,49.40
2022-11-23T17:31:54.883Z,50.80
2022-11-23T17:34:23.501Z,55.60
2022-11-23T17:36:52.467Z,61.20
2022-11-23T17:39:26.058Z,49.90
2022-11-23T17:41:56.760Z,52.70
2022-11-23T17:44:28.800Z,46.10
2022-11-23T17:47:00.273Z,48.20
2022-11-23T17:49:28.934Z,47.90
2022-11-23T17:51:57.599Z,43.20
2022-11-23T17:54:26.342Z,46.80
2022-11-23T17:56:55.076Z,47.20
2022-11-23T17:59:24.037Z,47.50
2022-11-23T18:01:52.635Z,46.10
2022-11-23T18:04:21.854Z,45.80
2022-11-23T18:06:50.485Z,44.70
2022-11-23T18:09:19.107Z,45.70
2022-11-23T18:11:47.696Z,46.60
2022-11-23T18:14:18.238Z,48.00
2022-11-23T18:16:46.936Z,41.70
2022-11-23T18:19:15.793Z,45.60
2022-11-23T18:21:51.385Z,46.60
2022-11-23T18:24:22.909Z,43.80
2022-11-23T18:26:51.544Z,45.90
2022-11-23T18:29:20.188Z,44.00
2022-11-23T18:31:48.727Z,48.90
2022-11-23T18:34:17.354Z,48.70
2022-11-23T18:36:45.909Z,49.10
2022-11-23T18:39:14.558Z,46.10
2022-11-23T18:41:43.157Z,44.70
2022-11-23T18:44:11.768Z,43.80
2022-11-23T18:46:41.306Z,48.00
2022-11-23T18:49:10.005Z,44.30
2022-11-23T18:51:39.109Z,41.90
2022-11-23T18:54:08.212Z,45.90
2022-11-23T18:56:36.809Z,44.90
2022-11-23T18:59:15.572Z,51.50
2022-11-23T19:01:57.561Z,57.40
2022-11-23T19:04:26.524Z,54.50
2022-11-23T19:06:55.358Z,52.20
2022-11-23T19:09:24.116Z,50.50
2022-11-23T19:11:52.929Z,50.50
2022-11-23T19:14:21.831Z,45.60
2022-11-23T19:16:50.515Z,46.00
2022-11-23T19:19:19.223Z,45.50
2022-11-23T19:21:47.973Z,44.80
2022-11-23T19:24:16.851Z,45.50
2022-11-23T19:26:45.458Z,45.00
2022-11-23T19:29:14.255Z,42.50
2022-11-23T19:31:42.928Z,44.50
2022-11-23T19:34:11.705Z,46.00
2022-11-23T19:36:40.830Z,46.10
2022-11-23T19:39:10.280Z,46.90
2022-11-23T19:41:38.929Z,46.90
2022-11-23T19:44:09.519Z,43.30
2022-11-23T19:46:38.201Z,44.80
2022-11-23T19:49:08.477Z,44.10
2022-11-23T19:51:37.552Z,40.40
2022-11-23T19:54:07.014Z,43.00
2022-11-23T19:56:37.350Z,43.40
2022-11-23T19:59:06.485Z,47.40
2022-11-23T20:01:36.391Z,45.90
2022-11-23T20:04:09.141Z,45.60
2022-11-23T20:06:42.600Z,44.80
2022-11-23T20:09:17.085Z,45.00
2022-11-23T20:11:49.451Z,44.00
2022-11-23T20:14:19.795Z,48.50
2022-11-23T20:16:48.470Z,47.60
2022-11-23T20:19:17.064Z,48.00
2022-11-23T20:21:45.700Z,50.40
2022-11-23T20:24:14.623Z,54.80
2022-11-23T20:26:43.541Z,49.90
2022-11-23T20:29:13.854Z,48.90
2022-11-23T20:31:42.494Z,47.90
2022-11-23T20:34:16.785Z,44.70
2022-11-23T20:36:48.672Z,45.70
2022-11-23T20:39:17.385Z,42.60
2022-11-23T20:41:48.471Z,45.80
2022-11-23T20:44:17.184Z,49.50
2022-11-23T20:47:01.055Z,41.80
2022-11-23T20:49:30.467Z,45.90
2022-11-23T20:52:00.213Z,40.00
2022-11-23T20:54:29.370Z,45.90
2022-11-23T20:57:00.660Z,44.00
2022-11-23T20:59:30.086Z,46.90
2022-11-23T21:01:58.831Z,46.90
2022-11-23T21:04:27.511Z,48.70
2022-11-23T21:06:56.103Z,49.30
2022-11-23T21:09:24.850Z,51.20
2022-11-23T21:12:11.934Z,47.80
2022-11-23T21:14:40.562Z,46.20
2022-11-23T21:17:09.352Z,50.30
2022-11-23T21:19:39.670Z,51.30
2022-11-23T21:22:14.328Z,49.10
2022-11-23T21:24:43.150Z,48.40
2022-11-23T21:27:13.502Z,45.80
2022-11-23T21:29:44.264Z,43.70
2022-11-23T21:32:14.973Z,44.10
2022-11-23T21:34:43.535Z,42.30
2022-11-23T21:37:13.232Z,41.40
2022-11-23T21:39:42.022Z,40.90
2022-11-23T21:42:10.646Z,42.60
2022-11-23T21:44:39.205Z,44.90
2022-11-23T21:47:08.323Z,45.30
2022-11-23T21:49:36.990Z,46.50
2022-11-23T21:52:06.312Z,40.90
2022-11-23T21:54:35.537Z,44.80
2022-11-23T21:57:04.701Z,40.70
2022-11-23T21:59:34.669Z,34.10
2022-11-23T22:06:20.244Z,37.90
2022-11-23T22:08:53.037Z,35.80
2022-11-23T22:11:28.319Z,35.50
2022-11-23T22:14:06.361Z,34.60
2022-11-23T22:16:44.921Z,32.30
2022-11-23T22:19:16.410Z,37.20
2022-11-23T22:21:46.528Z,36.30
2022-11-23T22:24:18.811Z,34.80
2022-11-23T22:26:48.394Z,35.90
2022-11-23T22:29:17.522Z,35.30
2022-11-23T22:31:46.502Z,42.50
2022-11-23T22:34:15.612Z,35.60
2022-11-23T22:36:44.546Z,38.40
2022-11-23T22:39:13.934Z,44.40
2022-11-23T22:41:43.141Z,39.80
2022-11-23T22:44:12.106Z,40.80
2022-11-23T22:46:40.998Z,36.60
2022-11-23T22:49:11.183Z,37.80
2022-11-23T22:51:40.055Z,38.90
2022-11-23T22:54:09.852Z,38.30
2022-11-23T22:56:39.459Z,37.00
2022-11-23T22:59:08.422Z,37.70
2022-11-23T23:01:37.310Z,40.10
2022-11-23T23:04:06.210Z,40.60
2022-11-23T23:06:36.122Z,38.50
2022-11-23T23:09:07.624Z,37.00
2022-11-23T23:11:37.431Z,40.50
2022-11-23T23:14:06.608Z,35.00
2022-11-23T23:16:35.787Z,38.60
2022-11-23T23:19:04.846Z,39.70
2022-11-23T23:21:33.766Z,41.90
2022-11-23T23:24:02.577Z,38.20
2022-11-23T23:26:31.470Z,39.20
2022-11-23T23:29:00.954Z,38.40
2022-11-23T23:31:30.712Z,39.40
2022-11-23T23:34:00.543Z,37.30
2022-11-23T23:36:30.167Z,36.90
2022-11-23T23:38:59.184Z,36.90
2022-11-23T23:41:28.044Z,34.20
2022-11-23T23:43:56.894Z,36.50
2022-11-23T23:46:26.245Z,37.70
2022-11-23T23:48:55.124Z,37.70
2022-11-23T23:51:25.256Z,35.20
2022-11-23T23:53:54.200Z,36.30
2022-11-23T23:56:29.320Z,36.30
2022-11-23T23:58:59.360Z,36.00
